x

Shumagin Islands - 85nm South Of Sand Point, Ak (46075) Wave Buoy

8:50 - Tue 28th Apr 2015 All times are UTC.

  • Sig Wave height 3.6ft
  • Peak Period 8s
  • Average Period 6s
  • Wind
    7mph, 9mph gusts
  • Sea Temp 43°f
  • Luft Temp 40°f
  • Sea Pressure 1005.8mb

More Historic Weather Station data

Upgrade to MSW Pro to gain access to the past 30 days of data for over 8000 Wavebouys and Weather Stations around the globe.

Join Pro

Comparision Forecast

View Surf forecast
   
Di 04/28 8:50 3.5ft 8s 6s 7 9 mph 1005.8mb 43f 40f
7:50 3.5ft 6s 6s 7 9 mph 1006mb 43f 40f
6:50 3.5ft 7s 6s 9 11 mph 1006mb 43f 40f
5:50 3.5ft 9s 5s 7 9 mph 1005.9mb 43f 40f
4:50 3.5ft 7s 6s 9 11 mph 1005.8mb 43f 40f
3:50 4ft 11s 6s 9 11 mph 1005.7mb 43f 40f
2:50 4ft 10s 6s 9 11 mph 1005.6mb 43f 41f
1:50 3.5ft 11s 6s 9 11 mph 1005.8mb 43f 41f
12:50 4ft 8s 6s 9 11 mph 1006.1mb 43f 42f
Mo 04/27 11:50 4.5ft 9s 6s 9 11 mph 1006.2mb 43f 42f
10:50 4.5ft 11s 6s 9 11 mph 1006.3mb 43f 42f
9:50 4.5ft 8s 6s 7 9 mph 1006.3mb 43f 42f
8:50 5ft 11s 6s 7 9 mph 1006.3mb 42f 43f
7:50 5.5ft 11s 6s 9 11 mph 1006.2mb 42f 42f
6:50 5ft 8s 6s 9 11 mph 1006.1mb 42f 40f
5:50 5.5ft 10s 6s 11 13 mph 1006.1mb 42f 40f
4:50 6ft 8s 6s 13 16 mph 1005.9mb 42f 40f
3:50 6ft 10s 6s 13 16 mph 1006.2mb 42f 40f
2:50 5.5ft 11s 6s 13 16 mph 1006.5mb 42f 40f
1:50 6ft 8s 6s 13 16 mph 1006.8mb 42f 40f
12:50 6ft 8s 6s 16 20 mph 1007mb 42f 40f
11:50 7ft 10s 6s 16 20 mph 1007.5mb 42f 39f
10:50 7ft 10s 6s 18 22 mph 1007.8mb 42f 39f
9:50 7ft 10s 6s 18 22 mph 1007.8mb 42f 40f
8:50 6ft 11s 6s 20 25 mph 1008.2mb 42f 40f
7:50 6ft 9s 6s 18 20 mph 1008.6mb 42f 40f
6:50 6ft 9s 6s 18 20 mph 1008.8mb 42f 40f
5:50 7ft 8s 6s 16 20 mph 1008.9mb 42f 40f
4:50 7ft 9s 6s 18 22 mph 1008.9mb 42f 41f
3:50 7ft 9s 6s 18 20 mph 1009.1mb 42f 42f
2:50 8.5ft 9s 6s 20 25 mph 1009.3mb 42f 42f
1:50 8.5ft 10s 6s 22 27 mph 1009.5mb 42f 42f
12:50 8.5ft 10s 6s 25 27 mph 1009.8mb 42f 42f
So 04/26 11:50 9ft 11s 7s 20 22 mph 1009.9mb 42f 42f
10:50 9ft 11s 7s 22 25 mph 1010.3mb 42f 43f
9:50 9.5ft 10s 6s 20 27 mph 1010.3mb 42f 43f
8:50 9.5ft 11s 6s 22 27 mph 1010.2mb 42f 43f
7:50 10ft 11s 6s 22 25 mph 1010mb 42f 43f
6:50 9.5ft 12s 6s 22 27 mph 1010.1mb 42f 42f
5:50 11ft 11s 7s 20 25 mph 1010.1mb 42f 41f
4:50 11.5ft 11s 7s 22 27 mph 1009.9mb 42f 41f
3:50 11.5ft 11s 7s 25 29 mph 1009.3mb 42f 40f
2:50 11.5ft 11s 7s 22 29 mph 1009.1mb 42f 40f
1:50 12ft 12s 7s 25 29 mph 1008.9mb 42f 40f
12:50 11ft 11s 7s 27 31 mph 1008.4mb 42f 40f
11:50 12ft 11s 7s 27 34 mph 1008.2mb 42f 40f
10:50 11.5ft 11s 7s 29 34 mph 1007.8mb 42f 40f
9:50 12ft 11s 7s 29 36 mph 1007.3mb 42f 40f
8:50 12ft 12s 7s 29 36 mph 1006.9mb 42f 40f
7:50 11ft 11s 7s 29 36 mph 1006.3mb 42f 40f
6:50 10ft 12s 7s 27 34 mph 1005.9mb 42f 41f
5:50 9.5ft 9s 7s 25 29 mph 1005.2mb 42f 41f
4:50 9ft 10s 6s 22 27 mph 1004.5mb 42f 42f
3:50 6.5ft 9s 5s 22 29 mph 1003.8mb 42f 42f
2:50 7ft 9s 6s 20 25 mph 1003.6mb 42f 43f
1:50 7ft 9s 6s 20 22 mph 1003.2mb 42f 43f
12:50 7.5ft 9s 6s 20 25 mph 1002.9mb 42f 42f
Sa 04/25 11:50 7ft 10s 6s 20 25 mph 1002.6mb 42f 42f
10:50 6.5ft 11s 6s 20 25 mph 1002.2mb 42f 42f
9:50 6.5ft 10s 7s 18 20 mph 1001.9mb 42f 43f
8:50 7ft 11s 7s 16 18 mph 1001.4mb 42f 42f
7:50 6.5ft 12s 7s 13 16 mph 1000.9mb 42f 43f
6:50 6.5ft 10s 7s 9 11 mph 1000.6mb 42f 40f
5:50 7ft 13s 8s 18 20 mph 999.9mb 42f 39f
4:50 7ft 10s 8s 11 13 mph 999.3mb 42f 40f
3:50 7ft 11s 7s 11
mph
998.8mb 42f 39f
2:50 8ft 8s 7s 13 16 mph 998.6mb 42f 40f
1:50 8.5ft 10s 8s 13 16 mph 998.4mb 42f 40f
12:50 9ft 10s 8s 11 13 mph 998.4mb 42f 39f
11:50 9.5ft 14s 8s 9 11 mph 998.5mb 42f 38f
10:50 10ft 11s 9s 7 11 mph 998.4mb 42f 39f
9:50 9ft 10s 8s 9 11 mph 998.5mb 42f 37f
8:50 10ft 11s 8s 9 13 mph 998.4mb 42f 39f
7:50 9.5ft 11s 8s 9 11 mph 998.3mb 42f 39f
6:50 9ft 11s 8s 9 11 mph 998.2mb 42f 39f
5:50 9.5ft 13s 8s 11 13 mph 998mb 42f 40f
4:50 10ft 12s 8s 11 16 mph 997.7mb 42f 41f
3:50 10.5ft 12s 8s 13 18 mph 997.6mb 42f 42f
2:50 9.5ft 10s 7s 13 16 mph 997.6mb 42f 42f
1:50 10ft 14s 8s 13 16 mph 997.8mb 42f 43f
12:50 10ft 11s 7s 13 16 mph 997.8mb 42f 42f
Fr 04/24 11:50 12ft 9s 8s 18 22 mph 997.8mb 42f 42f
10:50 11.5ft 11s 8s 13 20 mph 998mb 42f 43f
9:50 12ft 11s 8s 16 18 mph 998.2mb 42f 42f
8:50 11.5ft 12s 8s 16 18 mph 998.3mb 42f 42f
7:50 13ft 11s 8s 20 27 mph 998.1mb 42f 41f
6:50 10.5ft 11s 7s 20 25 mph 997.9mb 42f 42f
5:50 11ft 12s 7s 20 27 mph 997.9mb 42f 40f
4:50 11ft 11s 7s 20 25 mph 997.9mb 42f 40f
3:50 10ft 11s 7s 18 22 mph 998mb 42f 40f
2:50 11ft 12s 7s 22 29 mph 998.1mb 42f 39f
1:50 10.5ft 11s 7s 22 27 mph 998.3mb 42f 39f
12:50 11ft 11s 7s 20 27 mph 998.5mb 42f 40f
11:50 10ft 9s 7s 22 27 mph 998.6mb 42f 40f
10:50 10ft 11s 7s 20 25 mph 999.2mb 42f 40f